Time;durP1;ratioP1;P1;durP2;ratioP2;P2;SDS_P1;SDS_P2;PMS_P1;PMS_P2;Temp;Humidity;BMP_temperature;BMP_pressure;BME280_temperature;BME280_humidity;BME280_pressure;Samples;Min_cycle;Max_cycle;Signal;HPM_P1;HPM_P2
2021/05/04 00:01:25;;;;;;;3.72;1.80;;;14.50;66.40;;;;;;5103775;28;20227;-75
2021/05/04 00:03:52;;;;;;;2.13;1.90;;;14.50;66.50;;;;;;5112045;28;20196;-75
2021/05/04 00:06:18;;;;;;;2.47;2.05;;;14.50;66.20;;;;;;5111142;28;20201;-75
2021/05/04 00:08:44;;;;;;;2.47;1.60;;;14.50;66.40;;;;;;5103407;28;20209;-75
2021/05/04 00:11:10;;;;;;;2.35;1.85;;;14.50;66.20;;;;;;5101077;28;20201;-75
2021/05/04 00:13:37;;;;;;;9.50;2.50;;;14.50;66.20;;;;;;5094462;28;20200;-75
2021/05/04 00:16:03;;;;;;;1.80;1.70;;;14.50;66.00;;;;;;5091051;28;20629;-75
2021/05/04 00:18:30;;;;;;;2.58;1.83;;;14.50;66.20;;;;;;5094713;28;20194;-75
2021/05/04 00:20:57;;;;;;;4.95;1.70;;;14.50;66.20;;;;;;5105361;28;20200;-75
2021/05/04 00:23:23;;;;;;;3.15;2.10;;;14.50;66.10;;;;;;5091713;28;20228;-75
2021/05/04 00:25:49;;;;;;;3.28;1.73;;;14.50;65.90;;;;;;5102400;28;20697;-75
2021/05/04 00:28:16;;;;;;;2.42;1.88;;;14.40;65.70;;;;;;5097536;28;20227;-76
2021/05/04 00:30:42;;;;;;;2.42;2.20;;;14.40;65.70;;;;;;5092511;28;20198;-76
2021/05/04 00:33:08;;;;;;;2.10;1.90;;;14.40;65.60;;;;;;5101086;28;20207;-75
2021/05/04 00:35:35;;;;;;;1.92;1.80;;;14.40;65.40;;;;;;5096507;28;20251;-74
2021/05/04 00:38:02;;;;;;;1.80;1.58;;;14.40;65.60;;;;;;5096146;28;20609;-75
2021/05/04 00:40:28;;;;;;;1.92;1.83;;;14.40;65.40;;;;;;5111272;28;20196;-75
2021/05/04 00:42:54;;;;;;;2.15;1.67;;;14.40;65.30;;;;;;5097120;28;20202;-75
2021/05/04 00:45:20;;;;;;;2.58;1.70;;;14.40;65.60;;;;;;5091043;28;20800;-75
2021/05/04 00:47:47;;;;;;;3.38;1.50;;;14.40;65.60;;;;;;5091910;28;20220;-75
2021/05/04 00:50:14;;;;;;;1.60;1.48;;;14.40;65.70;;;;;;5092507;28;20201;-76
2021/05/04 00:52:40;;;;;;;1.60;1.50;;;14.40;65.70;;;;;;5090869;28;20197;-76
2021/05/04 00:55:08;;;;;;;1.88;1.67;;;14.40;65.50;;;;;;5090251;28;20216;-76
2021/05/04 00:57:34;;;;;;;3.50;1.92;;;14.40;66.00;;;;;;5094651;28;20184;-76
2021/05/04 01:00:04;;;;;;;1.80;1.70;;;14.40;65.90;;;;;;5092114;28;20201;-76
2021/05/04 01:02:31;;;;;;;1.83;1.30;;;14.40;65.70;;;;;;5110066;28;20223;-76
2021/05/04 01:04:58;;;;;;;1.38;1.20;;;14.40;65.80;;;;;;5103731;28;20219;-77
2021/05/04 01:07:26;;;;;;;1.58;1.48;;;14.40;65.70;;;;;;5093276;28;20717;-76
2021/05/04 01:09:52;;;;;;;3.40;2.08;;;14.40;65.90;;;;;;5089405;28;20196;-76
2021/05/04 01:12:19;;;;;;;2.40;1.77;;;14.40;65.80;;;;;;5095548;28;20192;-76
2021/05/04 01:14:45;;;;;;;1.95;1.73;;;14.30;65.50;;;;;;5111153;28;20196;-76
2021/05/04 01:17:11;;;;;;;1.63;1.52;;;14.40;65.90;;;;;;5102157;28;20193;-76
2021/05/04 01:19:37;;;;;;;1.75;1.65;;;14.30;65.80;;;;;;5109510;28;20208;-76
2021/05/04 01:22:04;;;;;;;1.63;1.52;;;14.30;65.90;;;;;;5095542;28;20216;-76
2021/05/04 01:24:31;;;;;;;1.92;1.50;;;14.30;65.90;;;;;;5101618;28;20664;-75
2021/05/04 01:26:58;;;;;;;1.48;1.38;;;14.40;66.00;;;;;;5095671;28;20205;-74
2021/05/04 01:29:25;;;;;;;1.48;1.30;;;14.40;65.90;;;;;;5094945;28;20197;-75
2021/05/04 01:31:52;;;;;;;2.47;1.48;;;14.30;65.80;;;;;;5094412;28;20201;-75
2021/05/04 01:34:18;;;;;;;2.00;1.90;;;14.30;66.00;;;;;;5100849;28;20201;-74
2021/05/04 01:36:45;;;;;;;1.83;1.73;;;14.30;65.80;;;;;;5098936;28;20285;-74
2021/05/04 01:39:12;;;;;;;2.35;1.92;;;14.30;65.70;;;;;;5100220;28;20201;-74
2021/05/04 01:41:39;;;;;;;2.28;1.80;;;14.30;65.90;;;;;;5089827;28;20197;-74
2021/05/04 01:44:07;;;;;;;1.55;1.45;;;14.30;65.80;;;;;;5093324;28;20190;-75
2021/05/04 01:46:34;;;;;;;1.63;1.52;;;14.30;65.80;;;;;;5091148;28;20210;-74
2021/05/04 01:49:01;;;;;;;1.73;1.63;;;14.30;66.00;;;;;;5093386;28;20205;-74
2021/05/04 01:51:28;;;;;;;1.63;1.52;;;14.30;65.90;;;;;;5095855;28;20260;-74
2021/05/04 01:53:55;;;;;;;1.45;1.30;;;14.30;65.60;;;;;;5101590;28;20201;-74
2021/05/04 01:56:22;;;;;;;1.98;1.50;;;14.30;66.00;;;;;;5090874;28;20209;-75
2021/05/04 01:58:49;;;;;;;4.25;1.45;;;14.30;65.40;;;;;;5102435;28;20545;-74
2021/05/04 02:01:15;;;;;;;1.70;1.50;;;14.30;65.60;;;;;;5097019;28;20269;-75
2021/05/04 02:03:42;;;;;;;3.03;1.60;;;14.30;65.60;;;;;;5090179;28;20326;-75
2021/05/04 02:06:08;;;;;;;1.98;1.17;;;14.30;65.70;;;;;;5095673;28;20514;-75
2021/05/04 02:08:34;;;;;;;1.38;1.27;;;14.30;65.60;;;;;;5109305;28;20668;-75
2021/05/04 02:11:01;;;;;;;1.52;1.42;;;14.30;65.60;;;;;;5096021;28;20747;-74
2021/05/04 02:13:28;;;;;;;1.60;1.40;;;14.30;65.40;;;;;;5101761;28;20225;-74
2021/05/04 02:15:54;;;;;;;1.75;1.50;;;14.30;65.10;;;;;;5099576;28;20240;-75
2021/05/04 02:18:21;;;;;;;1.35;1.20;;;14.30;65.20;;;;;;5092414;28;20193;-75
2021/05/04 02:20:47;;;;;;;8.52;2.00;;;14.30;65.40;;;;;;5092099;28;20205;-75
2021/05/04 02:23:13;;;;;;;1.67;1.33;;;14.20;63.50;;;;;;5104312;28;20219;-74
2021/05/04 02:25:39;;;;;;;6.35;1.95;;;14.20;63.90;;;;;;5108726;28;20236;-74
2021/05/04 02:28:05;;;;;;;2.88;1.20;;;14.20;63.40;;;;;;5103094;28;20220;-74
2021/05/04 02:30:33;;;;;;;6.60;1.80;;;14.20;63.60;;;;;;5111302;28;20242;-74
2021/05/04 02:32:59;;;;;;;1.80;1.60;;;14.20;63.40;;;;;;5093193;28;20194;-75
2021/05/04 02:35:25;;;;;;;6.55;2.08;;;14.20;63.20;;;;;;5096338;28;20200;-75
2021/05/04 02:37:52;;;;;;;1.92;1.60;;;14.20;63.10;;;;;;5103621;28;20246;-75
2021/05/04 02:40:18;;;;;;;2.38;1.55;;;14.20;63.10;;;;;;5098101;28;20197;-74
2021/05/04 02:42:45;;;;;;;2.60;1.73;;;14.20;62.90;;;;;;5096471;28;20200;-74
2021/05/04 02:45:12;;;;;;;3.05;1.30;;;14.20;62.80;;;;;;5113037;28;20204;-75
2021/05/04 02:47:40;;;;;;;2.88;1.52;;;14.20;63.00;;;;;;5113283;28;20547;-74
2021/05/04 02:50:07;;;;;;;2.22;1.52;;;14.20;63.20;;;;;;5109969;28;20197;-75
2021/05/04 02:52:33;;;;;;;4.00;1.70;;;14.20;63.70;;;;;;5106504;28;20253;-76
2021/05/04 02:54:59;;;;;;;3.38;1.30;;;14.20;64.50;;;;;;5095998;28;20212;-75
2021/05/04 02:57:26;;;;;;;1.63;1.52;;;14.10;64.80;;;;;;5093988;28;20637;-75
2021/05/04 02:59:52;;;;;;;2.30;1.77;;;14.10;65.30;;;;;;5094213;28;20201;-75
2021/05/04 03:02:18;;;;;;;2.17;1.30;;;14.10;65.80;;;;;;5108715;28;20201;-75
2021/05/04 03:04:45;;;;;;;2.08;1.48;;;14.10;66.00;;;;;;5100788;28;20208;-74
2021/05/04 03:07:11;;;;;;;3.83;1.40;;;14.10;66.40;;;;;;5094933;28;20224;-75
2021/05/04 03:09:37;;;;;;;1.30;1.08;;;14.10;66.60;;;;;;5107202;28;20874;-75
2021/05/04 03:12:04;;;;;;;1.60;1.50;;;14.10;67.00;;;;;;5091892;28;20247;-75
2021/05/04 03:14:30;;;;;;;2.28;1.20;;;14.10;67.50;;;;;;5092734;28;20209;-75
2021/05/04 03:16:56;;;;;;;1.52;1.25;;;14.10;68.10;;;;;;5091548;28;20224;-75
2021/05/04 03:19:23;;;;;;;1.83;1.58;;;14.10;68.70;;;;;;5092394;28;20224;-75
2021/05/04 03:21:50;;;;;;;1.95;1.50;;;14.10;69.30;;;;;;5092835;28;20201;-75
2021/05/04 03:24:16;;;;;;;1.52;1.13;;;14.10;70.40;;;;;;5091567;28;20233;-75
2021/05/04 03:26:44;;;;;;;2.15;1.80;;;14.10;70.70;;;;;;5091280;28;20189;-75
2021/05/04 03:29:10;;;;;;;1.50;1.08;;;14.00;71.30;;;;;;5102969;28;20315;-74
2021/05/04 03:31:37;;;;;;;1.70;1.40;;;14.00;71.90;;;;;;5098955;28;20205;-75
2021/05/04 03:34:03;;;;;;;2.10;1.60;;;14.00;72.50;;;;;;5100416;28;20196;-75
2021/05/04 03:36:29;;;;;;;1.60;1.17;;;14.00;73.30;;;;;;5104172;28;20518;-75
2021/05/04 03:38:56;;;;;;;1.88;1.70;;;14.00;73.90;;;;;;5096737;28;20223;-74
2021/05/04 03:41:22;;;;;;;2.22;1.60;;;14.00;74.00;;;;;;5102390;28;20200;-74
2021/05/04 03:43:49;;;;;;;1.23;1.00;;;14.00;74.90;;;;;;5101625;28;20200;-74
2021/05/04 03:46:15;;;;;;;1.48;1.15;;;14.00;75.30;;;;;;5101745;28;20220;-75
2021/05/04 03:48:41;;;;;;;2.72;1.02;;;14.00;75.60;;;;;;5107224;28;20565;-74
2021/05/04 03:51:07;;;;;;;1.50;1.20;;;14.00;75.90;;;;;;5098145;28;20205;-74
2021/05/04 03:53:35;;;;;;;2.55;1.60;;;14.00;76.50;;;;;;5099551;28;20189;-74
2021/05/04 03:56:04;;;;;;;1.42;1.00;;;14.00;76.70;;;;;;5104091;28;20238;-74
2021/05/04 03:58:30;;;;;;;2.40;1.20;;;13.90;76.70;;;;;;5098055;28;20621;-75
2021/05/04 04:00:56;;;;;;;1.42;1.10;;;13.90;77.10;;;;;;5102043;28;20545;-75
2021/05/04 04:03:22;;;;;;;4.65;1.25;;;13.90;77.60;;;;;;5101903;28;20192;-75
2021/05/04 04:05:48;;;;;;;2.28;1.08;;;13.90;77.90;;;;;;5092391;28;20192;-75
2021/05/04 04:08:15;;;;;;;5.05;1.67;;;13.90;78.40;;;;;;5098481;28;20235;-75
2021/05/04 04:10:41;;;;;;;1.63;1.42;;;13.80;78.90;;;;;;5101443;28;20289;-74
2021/05/04 04:13:08;;;;;;;2.17;1.33;;;13.90;79.30;;;;;;5097478;28;20207;-74
2021/05/04 04:15:35;;;;;;;2.38;1.35;;;13.80;79.70;;;;;;5102771;28;20197;-74
2021/05/04 04:18:01;;;;;;;1.77;1.00;;;13.80;80.10;;;;;;5100531;28;20196;-74
2021/05/04 04:20:27;;;;;;;1.23;1.00;;;13.80;80.60;;;;;;5105332;28;20200;-75
2021/05/04 04:22:53;;;;;;;2.40;1.50;;;13.80;80.90;;;;;;5102795;28;20190;-75
2021/05/04 04:25:20;;;;;;;2.00;1.30;;;13.70;81.10;;;;;;5090942;28;20241;-75
2021/05/04 04:27:46;;;;;;;1.70;1.60;;;13.80;81.60;;;;;;5090262;28;20213;-74
2021/05/04 04:30:15;;;;;;;1.50;1.30;;;13.70;81.60;;;;;;5090354;28;20198;-74
2021/05/04 04:32:42;;;;;;;1.33;1.20;;;13.70;82.10;;;;;;5094063;28;20204;-74
2021/05/04 04:35:09;;;;;;;2.97;1.52;;;13.70;83.10;;;;;;5097026;28;20633;-74
2021/05/04 04:37:35;;;;;;;1.20;1.10;;;13.70;82.70;;;;;;5097660;28;20194;-75
2021/05/04 04:40:02;;;;;;;2.70;1.35;;;13.70;83.10;;;;;;5093242;28;20197;-74
2021/05/04 04:42:28;;;;;;;1.80;1.33;;;13.60;83.50;;;;;;5091065;28;20634;-74
2021/05/04 04:44:54;;;;;;;1.85;1.40;;;13.60;83.60;;;;;;5097309;28;20189;-74
2021/05/04 04:47:21;;;;;;;1.67;1.20;;;13.60;83.80;;;;;;5093954;28;20273;-74
2021/05/04 04:49:47;;;;;;;1.80;1.50;;;13.60;84.00;;;;;;5096379;28;20201;-76
2021/05/04 04:52:14;;;;;;;1.90;1.38;;;13.60;84.70;;;;;;5093204;28;20542;-74
2021/05/04 04:54:40;;;;;;;1.98;1.27;;;13.60;85.00;;;;;;5085725;28;20229;-74
2021/05/04 04:57:06;;;;;;;2.65;1.30;;;13.50;85.00;;;;;;5090611;28;20201;-74
2021/05/04 04:59:33;;;;;;;2.03;1.00;;;13.50;85.40;;;;;;5102546;28;20193;-74
2021/05/04 05:01:59;;;;;;;1.27;1.10;;;13.50;85.70;;;;;;5093470;28;20197;-74
2021/05/04 05:04:26;;;;;;;1.55;1.00;;;13.50;85.80;;;;;;5111420;28;20196;-74
2021/05/04 05:06:53;;;;;;;1.30;1.17;;;13.50;86.20;;;;;;5099321;28;20193;-74
2021/05/04 05:09:19;;;;;;;2.15;1.40;;;13.50;86.60;;;;;;5091827;28;20210;-74
2021/05/04 05:11:46;;;;;;;1.40;1.30;;;13.50;86.80;;;;;;5103680;28;20205;-74
2021/05/04 05:14:12;;;;;;;1.20;1.10;;;13.50;86.90;;;;;;5096467;28;20251;-74
2021/05/04 05:16:39;;;;;;;1.02;0.93;;;13.50;87.60;;;;;;5100520;28;20201;-74
2021/05/04 05:19:06;;;;;;;1.45;1.30;;;13.50;87.40;;;;;;5100690;28;20200;-74
2021/05/04 05:21:36;;;;;;;2.30;1.10;;;13.40;87.50;;;;;;5099992;28;20199;-75
2021/05/04 05:24:03;;;;;;;1.30;1.10;;;13.40;87.60;;;;;;5093419;28;20320;-75
2021/05/04 05:26:30;;;;;;;1.30;1.10;;;13.40;87.80;;;;;;5100607;28;20203;-74
2021/05/04 05:28:57;;;;;;;1.40;1.30;;;13.40;88.40;;;;;;5095251;28;20228;-75
2021/05/04 05:31:28;;;;;;;1.75;1.35;;;13.40;88.60;;;;;;5090717;28;20208;-75
2021/05/04 05:33:55;;;;;;;1.30;1.10;;;13.40;88.60;;;;;;5102038;28;20308;-74
2021/05/04 05:36:21;;;;;;;2.20;1.10;;;13.40;88.70;;;;;;5110630;28;20200;-75
2021/05/04 05:38:48;;;;;;;1.73;1.45;;;13.40;88.80;;;;;;5094548;28;20193;-75
2021/05/04 05:41:15;;;;;;;1.40;1.10;;;13.30;88.80;;;;;;5101790;28;20863;-75
2021/05/04 05:43:41;;;;;;;1.30;1.10;;;13.30;88.90;;;;;;5091739;28;20212;-75
2021/05/04 05:46:07;;;;;;;1.70;1.40;;;13.30;89.00;;;;;;5089932;28;20193;-74
2021/05/04 05:48:34;;;;;;;1.27;1.10;;;13.30;90.00;;;;;;5090063;28;20557;-74
2021/05/04 05:51:00;;;;;;;1.33;1.23;;;13.30;89.50;;;;;;5090755;28;20284;-74
2021/05/04 05:53:26;;;;;;;1.85;1.17;;;13.30;89.50;;;;;;5103096;28;20509;-76
2021/05/04 05:55:53;;;;;;;1.80;1.10;;;13.30;89.70;;;;;;5093097;28;20561;-76
2021/05/04 05:58:19;;;;;;;1.60;1.27;;;13.30;89.70;;;;;;5092557;28;20194;-76
2021/05/04 06:00:46;;;;;;;1.73;1.27;;;13.30;89.90;;;;;;5105432;28;20193;-75
2021/05/04 06:03:13;;;;;;;1.23;0.90;;;13.20;90.00;;;;;;5095266;28;20209;-74
2021/05/04 06:05:39;;;;;;;1.70;1.17;;;13.20;90.10;;;;;;5093852;28;20193;-75
2021/05/04 06:08:05;;;;;;;1.60;1.10;;;13.20;90.10;;;;;;5096643;28;20231;-75
2021/05/04 06:10:32;;;;;;;2.15;1.70;;;13.20;90.10;;;;;;5101022;28;20204;-75
2021/05/04 06:13:00;;;;;;;1.35;1.23;;;13.20;90.20;;;;;;5112461;28;20212;-75
2021/05/04 06:15:26;;;;;;;2.55;1.10;;;13.20;90.40;;;;;;5101592;28;20205;-75
2021/05/04 06:17:52;;;;;;;1.55;1.25;;;13.20;90.90;;;;;;5092866;28;20208;-75
2021/05/04 06:20:18;;;;;;;2.13;1.17;;;13.20;90.80;;;;;;5094228;28;20197;-75
2021/05/04 06:22:47;;;;;;;1.77;1.33;;;13.10;91.00;;;;;;5095475;28;20204;-75
2021/05/04 06:25:13;;;;;;;1.73;1.25;;;13.10;91.20;;;;;;5100722;28;20229;-75
2021/05/04 06:27:40;;;;;;;1.10;0.90;;;13.10;91.40;;;;;;5106403;28;20221;-75
2021/05/04 06:30:09;;;;;;;1.38;1.25;;;13.10;91.50;;;;;;5100292;28;20199;-75
2021/05/04 06:32:36;;;;;;;1.20;1.00;;;13.10;91.60;;;;;;5098753;28;20287;-75
2021/05/04 06:35:03;;;;;;;1.45;1.27;;;13.10;91.70;;;;;;5106136;28;20211;-76
2021/05/04 06:37:29;;;;;;;1.90;1.10;;;13.10;91.90;;;;;;5111566;28;20233;-75
2021/05/04 06:39:55;;;;;;;1.40;1.27;;;13.10;92.10;;;;;;5112597;28;20212;-75
2021/05/04 06:42:21;;;;;;;1.10;1.00;;;13.10;92.30;;;;;;5092799;28;20197;-75
2021/05/04 06:44:47;;;;;;;1.63;1.10;;;13.10;92.40;;;;;;5113899;28;20193;-75
2021/05/04 06:47:14;;;;;;;2.35;1.10;;;13.10;92.70;;;;;;5099419;28;20347;-75
2021/05/04 06:49:41;;;;;;;2.90;1.30;;;13.10;92.60;;;;;;5103095;28;20208;-75
2021/05/04 06:52:07;;;;;;;1.40;1.20;;;13.00;92.70;;;;;;5092424;28;20205;-75
2021/05/04 06:54:34;;;;;;;1.60;1.30;;;13.00;92.70;;;;;;5092656;28;20217;-75
2021/05/04 06:57:00;;;;;;;1.00;0.90;;;13.00;93.10;;;;;;5092891;28;20269;-75
2021/05/04 06:59:26;;;;;;;1.75;1.40;;;13.00;93.20;;;;;;5100528;28;20200;-75
2021/05/04 07:01:52;;;;;;;2.30;1.20;;;13.00;93.30;;;;;;5105337;27;20193;-75
2021/05/04 07:04:19;;;;;;;1.60;1.17;;;13.00;93.50;;;;;;5093610;28;20198;-74
2021/05/04 07:06:45;;;;;;;2.53;1.00;;;12.90;95.40;;;;;;5097908;28;20567;-74
2021/05/04 07:09:12;;;;;;;1.20;1.10;;;12.90;94.90;;;;;;5107363;28;20273;-74
2021/05/04 07:11:38;;;;;;;1.60;1.05;;;13.00;95.10;;;;;;5112354;28;20253;-74
2021/05/04 07:14:05;;;;;;;1.02;0.82;;;13.00;95.00;;;;;;5106417;28;20197;-74
2021/05/04 07:16:32;;;;;;;1.10;1.00;;;13.10;94.80;;;;;;5106040;28;20224;-74
2021/05/04 07:18:58;;;;;;;1.40;1.10;;;13.20;94.70;;;;;;5092226;28;20542;-75
2021/05/04 07:21:25;;;;;;;2.90;1.10;;;13.20;94.50;;;;;;5092214;28;20201;-75
2021/05/04 07:23:51;;;;;;;1.35;1.00;;;13.20;94.60;;;;;;5085494;28;20696;-75
2021/05/04 07:26:18;;;;;;;1.10;1.00;;;13.30;94.60;;;;;;5092373;28;20205;-75
2021/05/04 07:28:44;;;;;;;1.67;1.23;;;13.30;94.60;;;;;;5099398;28;20216;-75
2021/05/04 07:31:14;;;;;;;2.38;1.17;;;13.30;94.50;;;;;;5094568;28;20696;-76
2021/05/04 07:33:40;;;;;;;2.38;1.10;;;13.30;94.60;;;;;;5104650;28;20201;-77
2021/05/04 07:36:07;;;;;;;2.03;1.40;;;13.30;94.60;;;;;;5103466;28;20624;-76
2021/05/04 07:38:33;;;;;;;1.20;1.10;;;13.30;94.90;;;;;;5095408;28;20189;-75
2021/05/04 07:41:00;;;;;;;2.47;1.30;;;13.20;95.40;;;;;;5099966;28;20708;-76
2021/05/04 07:43:26;;;;;;;1.38;1.08;;;13.20;95.20;;;;;;5099898;28;20540;-75
2021/05/04 07:45:52;;;;;;;1.55;1.15;;;13.20;95.30;;;;;;5107980;28;20597;-76
2021/05/04 07:48:18;;;;;;;1.10;1.00;;;13.20;95.30;;;;;;5102657;28;20220;-75
2021/05/04 07:50:45;;;;;;;1.77;1.10;;;13.20;95.40;;;;;;5103285;28;20194;-75
2021/05/04 07:53:13;;;;;;;3.60;1.30;;;13.20;95.70;;;;;;5101688;28;20208;-75
2021/05/04 07:55:41;;;;;;;2.30;1.10;;;13.20;95.90;;;;;;5111524;28;20261;-75
2021/05/04 07:58:07;;;;;;;3.35;1.27;;;13.20;96.50;;;;;;5109618;28;20201;-74
2021/05/04 08:00:33;;;;;;;2.38;1.10;;;13.20;97.10;;;;;;5096245;28;20189;-75
2021/05/04 08:02:59;;;;;;;1.92;1.20;;;13.10;96.70;;;;;;5093976;28;20540;-76
2021/05/04 08:05:25;;;;;;;1.40;1.30;;;13.10;97.50;;;;;;5111935;28;20193;-75
2021/05/04 08:07:51;;;;;;;2.92;1.13;;;13.10;98.20;;;;;;5102714;28;20278;-75
2021/05/04 08:10:18;;;;;;;1.30;1.00;;;13.10;97.90;;;;;;5105685;27;20192;-77
2021/05/04 08:12:45;;;;;;;2.00;1.13;;;13.10;98.10;;;;;;5112059;27;20208;-76
2021/05/04 08:15:15;;;;;;;2.35;1.10;;;13.00;98.30;;;;;;5103092;28;20193;-76
2021/05/04 08:17:47;;;;;;;2.47;1.20;;;13.10;98.30;;;;;;5099941;27;20201;-77
2021/05/04 08:20:14;;;;;;;2.47;1.33;;;13.10;98.40;;;;;;5100613;28;20177;-75
2021/05/04 08:22:40;;;;;;;1.60;1.05;;;13.10;98.40;;;;;;5108005;28;20211;-77
2021/05/04 08:25:08;;;;;;;1.40;1.10;;;13.10;97.80;;;;;;5107010;28;20251;-77
2021/05/04 08:27:34;;;;;;;1.35;1.20;;;13.10;98.10;;;;;;5108921;28;20188;-77
2021/05/04 08:30:01;;;;;;;2.00;1.20;;;13.10;98.10;;;;;;5111711;28;20582;-77
2021/05/04 08:32:27;;;;;;;1.75;1.00;;;13.10;98.20;;;;;;5110531;28;20208;-77
2021/05/04 08:34:53;;;;;;;1.70;1.15;;;13.10;98.10;;;;;;5099595;28;20202;-77
2021/05/04 08:37:19;;;;;;;1.33;1.10;;;13.10;98.00;;;;;;5099334;28;20194;-77
2021/05/04 08:39:46;;;;;;;2.70;1.10;;;13.20;98.10;;;;;;5090690;28;20254;-77
2021/05/04 08:42:12;;;;;;;1.65;1.00;;;13.20;98.30;;;;;;5101929;28;20201;-76
2021/05/04 08:44:40;;;;;;;1.25;0.82;;;13.20;98.50;;;;;;5107543;28;20192;-77
2021/05/04 08:47:07;;;;;;;1.90;1.13;;;13.20;98.70;;;;;;5094410;28;20205;-77
2021/05/04 08:49:34;;;;;;;1.63;1.02;;;13.20;99.60;;;;;;5094547;28;20213;-77
2021/05/04 08:52:00;;;;;;;2.20;1.60;;;13.20;99.80;;;;;;5103349;28;20201;-77
2021/05/04 08:54:26;;;;;;;1.25;1.10;;;13.20;99.90;;;;;;5090779;28;20205;-77
2021/05/04 08:56:53;;;;;;;1.42;1.15;;;13.20;99.90;;;;;;5091517;28;20193;-77
2021/05/04 08:59:19;;;;;;;1.55;1.15;;;13.20;99.90;;;;;;5108671;28;20340;-77
2021/05/04 09:01:45;;;;;;;1.10;0.95;;;13.10;99.90;;;;;;5110558;28;20189;-77
2021/05/04 09:04:35;;;;;;;1.15;1.05;;;13.10;99.90;;;;;;5099123;28;20190;-77
2021/05/04 09:07:18;;;;;;;1.40;1.30;;;13.00;99.90;;;;;;5090791;28;20586;-77
2021/05/04 09:10:01;;;;;;;1.50;1.40;;;13.10;99.90;;;;;;5090819;28;20227;-77
2021/05/04 09:12:34;;;;;;;5.60;1.25;;;13.00;99.90;;;;;;5090892;28;20201;-78
2021/05/04 09:15:05;;;;;;;1.85;1.30;;;13.10;99.90;;;;;;5090625;28;20202;-77
2021/05/04 09:17:35;;;;;;;4.00;1.65;;;13.10;99.90;;;;;;5090886;28;20220;-78
2021/05/04 09:20:10;;;;;;;4.90;1.20;;;13.10;99.90;;;;;;5090866;28;20201;-77
2021/05/04 09:22:38;;;;;;;1.13;0.93;;;13.10;99.90;;;;;;5093575;28;20208;-77
2021/05/04 09:25:06;;;;;;;1.65;1.10;;;13.10;99.90;;;;;;5096596;28;20236;-77
2021/05/04 09:27:32;;;;;;;1.10;1.00;;;13.10;99.90;;;;;;5110732;28;20208;-77
2021/05/04 09:29:59;;;;;;;2.30;1.17;;;13.10;99.90;;;;;;5110366;28;20192;-77
2021/05/04 09:32:29;;;;;;;3.75;1.50;;;13.10;99.90;;;;;;5102456;28;20200;-78
2021/05/04 09:34:57;;;;;;;2.08;1.48;;;13.10;99.90;;;;;;5097371;28;22020;-78
2021/05/04 09:37:26;;;;;;;1.60;1.35;;;13.10;99.90;;;;;;5111288;28;20250;-78
2021/05/04 09:39:53;;;;;;;3.05;0.88;;;13.10;99.90;;;;;;5099406;28;20533;-76
2021/05/04 09:42:19;;;;;;;4.22;1.00;;;13.20;99.90;;;;;;5094045;28;20197;-77
2021/05/04 09:44:47;;;;;;;2.75;1.13;;;13.10;99.90;;;;;;5094481;28;20197;-77
2021/05/04 09:47:20;;;;;;;6.00;1.40;;;13.20;99.90;;;;;;5114874;28;20220;-77
2021/05/04 09:49:47;;;;;;;1.90;1.10;;;13.20;99.90;;;;;;5094071;28;20274;-77
2021/05/04 09:52:38;;;;;;;1.15;1.05;;;13.20;99.90;;;;;;5094165;28;20201;-78
2021/05/04 09:55:07;;;;;;;2.03;1.10;;;13.20;99.90;;;;;;5098299;28;20201;-77
2021/05/04 09:57:39;;;;;;;2.58;1.00;;;13.20;99.90;;;;;;5097688;28;20255;-77
2021/05/04 10:00:09;;;;;;;1.88;1.67;;;13.30;99.90;;;;;;5097366;28;20672;-78
2021/05/04 10:02:36;;;;;;;1.92;0.95;;;13.30;99.90;;;;;;5101180;28;20199;-77
2021/05/04 10:05:04;;;;;;;2.63;1.23;;;13.40;99.90;;;;;;5094254;28;20205;-78
2021/05/04 10:07:33;;;;;;;2.38;0.90;;;13.40;99.90;;;;;;5097397;28;20565;-78
2021/05/04 10:10:00;;;;;;;1.73;0.90;;;13.40;99.90;;;;;;5094055;28;20217;-78
2021/05/04 10:12:28;;;;;;;1.63;0.80;;;13.40;99.90;;;;;;5096976;28;20660;-78
2021/05/04 10:14:57;;;;;;;1.90;1.10;;;13.30;99.90;;;;;;5097709;28;20216;-78
2021/05/04 10:17:24;;;;;;;2.00;1.00;;;13.20;99.90;;;;;;5093631;28;20736;-78
2021/05/04 10:19:51;;;;;;;1.10;0.90;;;13.30;99.90;;;;;;5093006;28;20646;-79
2021/05/04 10:22:18;;;;;;;6.55;2.03;;;13.30;99.90;;;;;;5098542;28;20197;-77
2021/05/04 10:24:46;;;;;;;2.80;1.10;;;13.40;99.90;;;;;;5113233;28;20220;-76
2021/05/04 10:27:13;;;;;;;4.45;0.93;;;13.40;99.90;;;;;;5107215;28;20211;-75
2021/05/04 10:29:40;;;;;;;1.33;1.10;;;13.40;99.90;;;;;;5092289;28;20252;-76
2021/05/04 10:32:12;;;;;;;1.23;0.95;;;13.40;99.90;;;;;;5092544;28;20258;-75
2021/05/04 10:34:41;;;;;;;1.15;0.90;;;13.40;99.90;;;;;;5091985;28;20193;-75
2021/05/04 10:37:32;;;;;;;1.33;0.90;;;13.40;99.90;;;;;;5092079;28;20220;-76
2021/05/04 10:39:59;;;;;;;1.30;1.13;;;13.50;99.90;;;;;;5105982;28;20197;-75
2021/05/04 10:42:34;;;;;;;2.78;1.05;;;13.60;99.90;;;;;;5093847;28;20251;-76
2021/05/04 10:45:11;;;;;;;1.30;0.90;;;13.60;99.90;;;;;;5100049;28;20192;-75
2021/05/04 10:47:44;;;;;;;2.40;1.20;;;13.70;99.90;;;;;;5112487;28;20197;-78
2021/05/04 10:50:12;;;;;;;1.20;1.02;;;13.60;99.90;;;;;;5096347;28;20216;-76
2021/05/04 10:53:00;;;;;;;1.83;1.65;;;13.60;99.90;;;;;;5092223;28;20197;-76
2021/05/04 10:56:07;;;;;;;2.53;1.35;;;13.60;99.90;;;;;;5092619;28;20198;-75
2021/05/04 10:58:50;;;;;;;5.18;1.35;;;13.60;99.90;;;;;;5108079;28;20209;-75
2021/05/04 11:01:18;;;;;;;3.25;1.25;;;13.70;99.90;;;;;;5103109;28;20184;-74
2021/05/04 11:03:49;;;;;;;10.65;1.70;;;13.70;99.90;;;;;;5112577;28;20232;-74
2021/05/04 11:06:46;;;;;;;5.43;1.52;;;13.70;99.90;;;;;;5111744;28;20204;-75
2021/05/04 11:09:17;;;;;;;4.78;1.50;;;13.70;99.90;;;;;;5110596;28;20271;-74
2021/05/04 11:11:52;;;;;;;2.55;1.30;;;13.70;99.90;;;;;;5111909;28;20178;-75
2021/05/04 11:14:29;;;;;;;3.88;2.38;;;13.70;99.90;;;;;;5098549;28;20280;-75
2021/05/04 11:17:16;;;;;;;4.13;1.52;;;13.80;99.90;;;;;;5108101;28;20189;-75
2021/05/04 11:19:44;;;;;;;3.65;1.40;;;13.90;99.90;;;;;;5112086;28;20180;-77
2021/05/04 11:22:16;;;;;;;2.70;1.63;;;13.90;99.90;;;;;;5111648;28;20204;-74
2021/05/04 11:24:45;;;;;;;4.10;1.30;;;13.80;99.90;;;;;;5070548;28;562479;-76
2021/05/04 11:27:18;;;;;;;5.53;1.38;;;13.80;99.90;;;;;;5092600;28;20227;-76
2021/05/04 11:29:47;;;;;;;2.38;1.40;;;13.80;99.90;;;;;;5093062;28;20280;-75
2021/05/04 11:32:14;;;;;;;2.97;1.45;;;13.90;99.90;;;;;;5094044;28;20201;-76
2021/05/04 11:34:42;;;;;;;4.85;1.52;;;13.80;99.90;;;;;;5103283;28;20196;-75
2021/05/04 11:37:11;;;;;;;4.50;1.40;;;13.80;99.90;;;;;;5109069;28;20197;-76
2021/05/04 11:39:37;;;;;;;3.47;1.40;;;13.80;99.90;;;;;;5100758;28;20193;-75
2021/05/04 11:42:04;;;;;;;11.05;2.20;;;13.70;99.90;;;;;;5112543;28;20204;-75
2021/05/04 11:44:33;;;;;;;6.90;1.75;;;13.70;99.90;;;;;;5100988;28;20194;-75
2021/05/04 11:47:20;;;;;;;5.65;2.10;;;13.70;99.90;;;;;;5092961;28;20235;-77
2021/05/04 11:49:47;;;;;;;7.55;1.38;;;13.70;99.90;;;;;;5091838;28;20218;-76
2021/05/04 11:52:16;;;;;;;3.03;1.40;;;13.70;99.90;;;;;;5092901;28;20197;-77
2021/05/04 11:54:44;;;;;;;4.25;1.38;;;13.70;99.90;;;;;;5093268;28;20197;-78
2021/05/04 11:57:10;;;;;;;2.95;1.58;;;13.70;99.90;;;;;;5093945;28;20193;-77
2021/05/04 11:59:37;;;;;;;5.07;1.08;;;13.70;99.90;;;;;;5110108;28;20892;-77
2021/05/04 12:02:04;;;;;;;4.00;1.52;;;13.70;99.90;;;;;;5103657;28;20196;-77
2021/05/04 12:04:50;;;;;;;4.45;1.85;;;13.60;99.90;;;;;;5101934;28;20211;-78
2021/05/04 12:07:37;;;;;;;6.18;2.55;;;13.70;99.90;;;;;;5102431;28;20208;-75
2021/05/04 12:10:05;;;;;;;6.50;2.42;;;13.80;99.90;;;;;;5113298;27;20446;-76
2021/05/04 12:12:42;;;;;;;4.50;1.60;;;13.80;99.90;;;;;;5098431;27;20634;-75
2021/05/04 12:15:11;;;;;;;3.72;1.25;;;13.80;99.90;;;;;;5094085;28;20543;-75
2021/05/04 12:17:37;;;;;;;3.50;1.65;;;13.80;99.90;;;;;;5125850;27;20196;-76
2021/05/04 12:20:11;;;;;;;3.05;1.65;;;13.90;99.90;;;;;;5109415;27;20201;-76
2021/05/04 12:22:45;;;;;;;3.75;1.50;;;13.90;99.90;;;;;;5099275;28;20197;-77
2021/05/04 12:25:13;;;;;;;5.53;1.58;;;13.90;99.90;;;;;;5107815;28;20813;-75
2021/05/04 12:27:39;;;;;;;3.60;1.85;;;13.90;99.90;;;;;;5105905;28;20197;-75
2021/05/04 12:30:10;;;;;;;5.50;1.52;;;13.90;99.90;;;;;;5093582;28;20661;-77
2021/05/04 12:32:37;;;;;;;13.00;4.55;;;13.90;99.90;;;;;;5091405;28;20242;-76
2021/05/04 12:35:24;;;;;;;5.28;2.03;;;13.80;99.90;;;;;;5094105;28;20284;-76
2021/05/04 12:38:12;;;;;;;5.93;1.75;;;13.80;99.90;;;;;;5091693;28;20257;-79
2021/05/04 12:40:39;;;;;;;2.70;1.42;;;13.80;99.90;;;;;;5092106;28;20201;-77
2021/05/04 12:43:26;;;;;;;6.88;1.80;;;13.80;99.90;;;;;;5091028;28;20208;-77
2021/05/04 12:46:05;;;;;;;7.53;2.40;;;13.80;99.90;;;;;;5101605;28;20242;-76
2021/05/04 12:48:32;;;;;;;1.60;1.40;;;13.80;99.30;;;;;;5093190;28;20209;-76
2021/05/04 12:51:01;;;;;;;7.65;1.75;;;13.80;99.30;;;;;;5093381;28;20201;-77